sensor_id;sensor_type;location;lat;lon;timestamp;P1;durP1;ratioP1;P2;durP2;ratioP2
23732;SDS011;12047;53.450;-2.286;2023-07-24T00:04:41;5.40;;;3.03;;
23732;SDS011;12047;53.450;-2.286;2023-07-24T00:09:41;3.65;;;3.03;;
23732;SDS011;12047;53.450;-2.286;2023-07-24T00:14:42;5.88;;;3.40;;
23732;SDS011;12047;53.450;-2.286;2023-07-24T00:19:42;4.85;;;3.20;;
23732;SDS011;12047;53.450;-2.286;2023-07-24T00:24:43;6.72;;;3.20;;
23732;SDS011;12047;53.450;-2.286;2023-07-24T00:29:43;5.25;;;3.20;;
23732;SDS011;12047;53.450;-2.286;2023-07-24T00:34:43;4.88;;;3.30;;
23732;SDS011;12047;53.450;-2.286;2023-07-24T00:39:44;4.15;;;3.15;;
23732;SDS011;12047;53.450;-2.286;2023-07-24T00:44:44;5.07;;;3.00;;
23732;SDS011;12047;53.450;-2.286;2023-07-24T00:49:45;6.90;;;3.40;;
23732;SDS011;12047;53.450;-2.286;2023-07-24T00:54:46;4.22;;;3.40;;
23732;SDS011;12047;53.450;-2.286;2023-07-24T00:59:47;5.28;;;3.35;;
23732;SDS011;12047;53.450;-2.286;2023-07-24T01:04:47;5.35;;;3.42;;
23732;SDS011;12047;53.450;-2.286;2023-07-24T01:09:48;7.90;;;3.55;;
23732;SDS011;12047;53.450;-2.286;2023-07-24T01:14:55;4.95;;;3.20;;
23732;SDS011;12047;53.450;-2.286;2023-07-24T01:20:08;6.03;;;3.10;;
23732;SDS011;12047;53.450;-2.286;2023-07-24T01:31:02;4.78;;;2.97;;
23732;SDS011;12047;53.450;-2.286;2023-07-24T01:36:03;5.13;;;3.83;;
23732;SDS011;12047;53.450;-2.286;2023-07-24T01:41:05;4.80;;;3.70;;
23732;SDS011;12047;53.450;-2.286;2023-07-24T01:46:06;4.95;;;3.58;;
23732;SDS011;12047;53.450;-2.286;2023-07-24T01:51:06;5.22;;;3.63;;
23732;SDS011;12047;53.450;-2.286;2023-07-24T01:56:07;6.60;;;4.40;;
23732;SDS011;12047;53.450;-2.286;2023-07-24T02:01:07;6.90;;;4.03;;
23732;SDS011;12047;53.450;-2.286;2023-07-24T02:06:08;5.57;;;3.58;;
23732;SDS011;12047;53.450;-2.286;2023-07-24T02:11:08;6.45;;;3.92;;
23732;SDS011;12047;53.450;-2.286;2023-07-24T02:16:09;5.72;;;4.45;;
23732;SDS011;12047;53.450;-2.286;2023-07-24T02:21:09;5.95;;;4.15;;
23732;SDS011;12047;53.450;-2.286;2023-07-24T02:26:09;8.75;;;4.82;;
23732;SDS011;12047;53.450;-2.286;2023-07-24T02:31:10;7.25;;;4.80;;
23732;SDS011;12047;53.450;-2.286;2023-07-24T02:36:11;10.70;;;5.32;;
23732;SDS011;12047;53.450;-2.286;2023-07-24T02:41:12;10.85;;;5.82;;
23732;SDS011;12047;53.450;-2.286;2023-07-24T02:46:12;7.22;;;4.40;;
23732;SDS011;12047;53.450;-2.286;2023-07-24T02:51:12;8.80;;;4.82;;
23732;SDS011;12047;53.450;-2.286;2023-07-24T02:56:13;8.80;;;3.97;;
23732;SDS011;12047;53.450;-2.286;2023-07-24T03:01:13;13.68;;;4.40;;
23732;SDS011;12047;53.450;-2.286;2023-07-24T03:06:14;8.63;;;4.00;;
23732;SDS011;12047;53.450;-2.286;2023-07-24T03:11:15;8.20;;;3.40;;
23732;SDS011;12047;53.450;-2.286;2023-07-24T03:16:15;8.50;;;3.60;;
23732;SDS011;12047;53.450;-2.286;2023-07-24T03:21:17;10.60;;;3.40;;
23732;SDS011;12047;53.450;-2.286;2023-07-24T03:26:18;11.48;;;3.72;;
23732;SDS011;12047;53.450;-2.286;2023-07-24T03:31:19;9.15;;;3.90;;
23732;SDS011;12047;53.450;-2.286;2023-07-24T03:36:19;12.13;;;4.00;;
23732;SDS011;12047;53.450;-2.286;2023-07-24T03:41:20;12.90;;;3.58;;
23732;SDS011;12047;53.450;-2.286;2023-07-24T03:46:20;14.57;;;3.75;;
23732;SDS011;12047;53.450;-2.286;2023-07-24T03:51:21;11.80;;;3.85;;
23732;SDS011;12047;53.450;-2.286;2023-07-24T03:56:21;11.55;;;3.92;;
23732;SDS011;12047;53.450;-2.286;2023-07-24T04:01:22;12.18;;;4.25;;
23732;SDS011;12047;53.450;-2.286;2023-07-24T04:06:22;9.88;;;3.58;;
23732;SDS011;12047;53.450;-2.286;2023-07-24T04:11:23;16.05;;;4.20;;
23732;SDS011;12047;53.450;-2.286;2023-07-24T04:16:23;7.22;;;3.38;;
23732;SDS011;12047;53.450;-2.286;2023-07-24T04:21:24;13.48;;;3.65;;
23732;SDS011;12047;53.450;-2.286;2023-07-24T04:26:24;11.43;;;3.33;;
23732;SDS011;12047;53.450;-2.286;2023-07-24T04:31:24;11.95;;;4.10;;
23732;SDS011;12047;53.450;-2.286;2023-07-24T04:36:25;11.68;;;3.88;;
23732;SDS011;12047;53.450;-2.286;2023-07-24T04:41:25;10.98;;;3.80;;
23732;SDS011;12047;53.450;-2.286;2023-07-24T04:46:26;7.57;;;3.70;;
23732;SDS011;12047;53.450;-2.286;2023-07-24T04:51:26;9.37;;;4.17;;
23732;SDS011;12047;53.450;-2.286;2023-07-24T04:56:27;8.80;;;4.45;;
23732;SDS011;12047;53.450;-2.286;2023-07-24T05:01:27;8.73;;;4.10;;
23732;SDS011;12047;53.450;-2.286;2023-07-24T05:06:28;10.13;;;3.88;;
23732;SDS011;12047;53.450;-2.286;2023-07-24T05:11:28;9.65;;;3.20;;
23732;SDS011;12047;53.450;-2.286;2023-07-24T05:16:28;12.73;;;3.20;;
23732;SDS011;12047;53.450;-2.286;2023-07-24T05:21:29;10.13;;;2.67;;
23732;SDS011;12047;53.450;-2.286;2023-07-24T05:26:29;9.30;;;2.67;;
23732;SDS011;12047;53.450;-2.286;2023-07-24T05:31:30;11.18;;;3.03;;
23732;SDS011;12047;53.450;-2.286;2023-07-24T05:36:30;6.40;;;2.78;;
23732;SDS011;12047;53.450;-2.286;2023-07-24T05:41:31;9.55;;;2.83;;
23732;SDS011;12047;53.450;-2.286;2023-07-24T05:46:31;12.60;;;3.13;;
23732;SDS011;12047;53.450;-2.286;2023-07-24T05:51:31;6.90;;;2.60;;
23732;SDS011;12047;53.450;-2.286;2023-07-24T05:56:32;7.93;;;3.00;;
23732;SDS011;12047;53.450;-2.286;2023-07-24T06:01:32;8.10;;;2.90;;
23732;SDS011;12047;53.450;-2.286;2023-07-24T06:06:33;12.13;;;2.33;;
23732;SDS011;12047;53.450;-2.286;2023-07-24T06:11:33;10.57;;;2.28;;
23732;SDS011;12047;53.450;-2.286;2023-07-24T06:16:34;6.20;;;2.50;;
23732;SDS011;12047;53.450;-2.286;2023-07-24T06:21:34;7.05;;;2.63;;
23732;SDS011;12047;53.450;-2.286;2023-07-24T06:26:35;6.60;;;2.35;;
23732;SDS011;12047;53.450;-2.286;2023-07-24T06:31:35;7.50;;;2.22;;
23732;SDS011;12047;53.450;-2.286;2023-07-24T06:36:36;11.00;;;2.42;;
23732;SDS011;12047;53.450;-2.286;2023-07-24T06:41:36;9.35;;;2.45;;
23732;SDS011;12047;53.450;-2.286;2023-07-24T06:46:37;6.57;;;2.25;;
23732;SDS011;12047;53.450;-2.286;2023-07-24T06:51:37;7.35;;;2.33;;
23732;SDS011;12047;53.450;-2.286;2023-07-24T06:56:38;10.52;;;2.15;;
23732;SDS011;12047;53.450;-2.286;2023-07-24T07:01:39;9.97;;;2.27;;
23732;SDS011;12047;53.450;-2.286;2023-07-24T07:06:39;8.53;;;1.90;;
23732;SDS011;12047;53.450;-2.286;2023-07-24T07:11:39;5.72;;;1.77;;
23732;SDS011;12047;53.450;-2.286;2023-07-24T07:16:40;6.55;;;1.88;;
23732;SDS011;12047;53.450;-2.286;2023-07-24T07:21:41;5.40;;;1.90;;
23732;SDS011;12047;53.450;-2.286;2023-07-24T07:26:41;8.10;;;1.63;;
23732;SDS011;12047;53.450;-2.286;2023-07-24T07:31:41;6.18;;;1.83;;
23732;SDS011;12047;53.450;-2.286;2023-07-24T07:36:42;5.57;;;1.80;;
23732;SDS011;12047;53.450;-2.286;2023-07-24T07:41:42;9.63;;;1.88;;
23732;SDS011;12047;53.450;-2.286;2023-07-24T07:46:43;6.45;;;1.67;;
23732;SDS011;12047;53.450;-2.286;2023-07-24T07:51:43;2.57;;;1.30;;
23732;SDS011;12047;53.450;-2.286;2023-07-24T07:56:44;5.32;;;1.38;;
23732;SDS011;12047;53.450;-2.286;2023-07-24T08:01:44;6.20;;;1.58;;
23732;SDS011;12047;53.450;-2.286;2023-07-24T08:06:46;4.10;;;1.27;;
23732;SDS011;12047;53.450;-2.286;2023-07-24T08:11:46;5.22;;;1.70;;
23732;SDS011;12047;53.450;-2.286;2023-07-24T08:16:50;5.78;;;1.40;;
23732;SDS011;12047;53.450;-2.286;2023-07-24T08:21:51;5.30;;;1.42;;
23732;SDS011;12047;53.450;-2.286;2023-07-24T08:26:51;7.10;;;1.73;;
23732;SDS011;12047;53.450;-2.286;2023-07-24T08:31:52;5.07;;;1.48;;
23732;SDS011;12047;53.450;-2.286;2023-07-24T08:36:58;5.17;;;1.83;;
23732;SDS011;12047;53.450;-2.286;2023-07-24T08:41:59;8.27;;;2.20;;
23732;SDS011;12047;53.450;-2.286;2023-07-24T08:46:59;6.03;;;1.60;;
23732;SDS011;12047;53.450;-2.286;2023-07-24T08:52:00;6.60;;;1.50;;
23732;SDS011;12047;53.450;-2.286;2023-07-24T08:57:08;3.35;;;1.20;;
23732;SDS011;12047;53.450;-2.286;2023-07-24T09:02:12;5.10;;;1.70;;
23732;SDS011;12047;53.450;-2.286;2023-07-24T09:07:13;2.20;;;1.10;;
23732;SDS011;12047;53.450;-2.286;2023-07-24T09:12:14;3.38;;;1.45;;
23732;SDS011;12047;53.450;-2.286;2023-07-24T09:17:16;5.00;;;1.25;;
23732;SDS011;12047;53.450;-2.286;2023-07-24T09:22:16;2.78;;;1.20;;
23732;SDS011;12047;53.450;-2.286;2023-07-24T09:27:20;4.00;;;1.13;;
23732;SDS011;12047;53.450;-2.286;2023-07-24T09:32:24;3.15;;;1.40;;
23732;SDS011;12047;53.450;-2.286;2023-07-24T09:37:27;2.45;;;1.38;;
23732;SDS011;12047;53.450;-2.286;2023-07-24T09:42:33;6.03;;;1.60;;
23732;SDS011;12047;53.450;-2.286;2023-07-24T09:47:35;5.18;;;1.23;;
23732;SDS011;12047;53.450;-2.286;2023-07-24T09:52:36;3.92;;;1.45;;
23732;SDS011;12047;53.450;-2.286;2023-07-24T09:57:41;3.25;;;1.48;;
23732;SDS011;12047;53.450;-2.286;2023-07-24T10:02:45;5.35;;;1.48;;
23732;SDS011;12047;53.450;-2.286;2023-07-24T10:07:46;4.07;;;1.35;;
23732;SDS011;12047;53.450;-2.286;2023-07-24T10:12:49;3.88;;;1.35;;
23732;SDS011;12047;53.450;-2.286;2023-07-24T10:18:00;5.03;;;1.23;;
23732;SDS011;12047;53.450;-2.286;2023-07-24T10:23:07;4.07;;;1.30;;
23732;SDS011;12047;53.450;-2.286;2023-07-24T10:28:09;8.00;;;3.17;;
23732;SDS011;12047;53.450;-2.286;2023-07-24T10:33:23;7.45;;;2.10;;
23732;SDS011;12047;53.450;-2.286;2023-07-24T10:38:32;3.03;;;1.00;;
23732;SDS011;12047;53.450;-2.286;2023-07-24T10:43:47;6.07;;;1.77;;
23732;SDS011;12047;53.450;-2.286;2023-07-24T10:48:48;3.08;;;1.25;;
23732;SDS011;12047;53.450;-2.286;2023-07-24T10:53:51;4.32;;;1.38;;
23732;SDS011;12047;53.450;-2.286;2023-07-24T10:58:53;4.22;;;1.17;;
23732;SDS011;12047;53.450;-2.286;2023-07-24T11:03:53;3.58;;;1.30;;
23732;SDS011;12047;53.450;-2.286;2023-07-24T11:08:55;3.47;;;1.42;;
23732;SDS011;12047;53.450;-2.286;2023-07-24T11:13:57;4.82;;;1.73;;
23732;SDS011;12047;53.450;-2.286;2023-07-24T11:18:58;2.65;;;1.30;;
23732;SDS011;12047;53.450;-2.286;2023-07-24T11:23:58;6.95;;;1.52;;
23732;SDS011;12047;53.450;-2.286;2023-07-24T11:28:59;4.15;;;1.20;;
23732;SDS011;12047;53.450;-2.286;2023-07-24T11:33:59;2.72;;;1.10;;
23732;SDS011;12047;53.450;-2.286;2023-07-24T11:39:00;3.72;;;1.50;;
23732;SDS011;12047;53.450;-2.286;2023-07-24T11:44:01;5.75;;;2.22;;
23732;SDS011;12047;53.450;-2.286;2023-07-24T11:49:03;4.28;;;1.40;;
23732;SDS011;12047;53.450;-2.286;2023-07-24T11:54:04;4.72;;;1.95;;
23732;SDS011;12047;53.450;-2.286;2023-07-24T11:59:12;6.20;;;1.50;;
23732;SDS011;12047;53.450;-2.286;2023-07-24T12:04:14;5.15;;;2.78;;
23732;SDS011;12047;53.450;-2.286;2023-07-24T12:09:15;4.38;;;1.95;;
23732;SDS011;12047;53.450;-2.286;2023-07-24T12:14:15;5.33;;;1.60;;
23732;SDS011;12047;53.450;-2.286;2023-07-24T12:19:16;3.80;;;1.60;;
23732;SDS011;12047;53.450;-2.286;2023-07-24T12:24:18;3.67;;;1.90;;
23732;SDS011;12047;53.450;-2.286;2023-07-24T12:29:18;5.63;;;2.10;;
23732;SDS011;12047;53.450;-2.286;2023-07-24T12:34:19;5.90;;;2.07;;
23732;SDS011;12047;53.450;-2.286;2023-07-24T12:39:22;6.82;;;1.75;;
23732;SDS011;12047;53.450;-2.286;2023-07-24T12:44:23;3.83;;;1.35;;
23732;SDS011;12047;53.450;-2.286;2023-07-24T12:49:27;4.55;;;1.42;;
23732;SDS011;12047;53.450;-2.286;2023-07-24T12:54:27;4.93;;;1.80;;
23732;SDS011;12047;53.450;-2.286;2023-07-24T12:59:28;5.78;;;1.60;;
23732;SDS011;12047;53.450;-2.286;2023-07-24T13:04:29;4.00;;;1.23;;
23732;SDS011;12047;53.450;-2.286;2023-07-24T13:09:29;3.53;;;1.52;;
23732;SDS011;12047;53.450;-2.286;2023-07-24T13:14:30;4.03;;;1.38;;
23732;SDS011;12047;53.450;-2.286;2023-07-24T13:19:30;4.78;;;1.45;;
23732;SDS011;12047;53.450;-2.286;2023-07-24T13:24:31;4.88;;;2.15;;
23732;SDS011;12047;53.450;-2.286;2023-07-24T13:29:32;3.90;;;1.52;;
23732;SDS011;12047;53.450;-2.286;2023-07-24T13:34:32;4.50;;;1.70;;
23732;SDS011;12047;53.450;-2.286;2023-07-24T13:39:33;7.88;;;1.65;;
23732;SDS011;12047;53.450;-2.286;2023-07-24T13:44:34;4.78;;;1.92;;
23732;SDS011;12047;53.450;-2.286;2023-07-24T13:49:35;4.43;;;1.67;;
23732;SDS011;12047;53.450;-2.286;2023-07-24T13:54:35;3.00;;;1.20;;
23732;SDS011;12047;53.450;-2.286;2023-07-24T13:59:36;2.95;;;1.38;;
23732;SDS011;12047;53.450;-2.286;2023-07-24T14:04:40;4.18;;;1.50;;
23732;SDS011;12047;53.450;-2.286;2023-07-24T14:09:40;3.35;;;1.55;;
23732;SDS011;12047;53.450;-2.286;2023-07-24T14:14:40;6.10;;;1.77;;
23732;SDS011;12047;53.450;-2.286;2023-07-24T14:19:41;46.97;;;5.30;;
23732;SDS011;12047;53.450;-2.286;2023-07-24T14:24:41;9.13;;;1.85;;
23732;SDS011;12047;53.450;-2.286;2023-07-24T14:29:42;3.05;;;1.42;;
23732;SDS011;12047;53.450;-2.286;2023-07-24T14:34:42;3.42;;;1.20;;
23732;SDS011;12047;53.450;-2.286;2023-07-24T14:39:45;3.00;;;1.50;;
23732;SDS011;12047;53.450;-2.286;2023-07-24T14:44:45;3.85;;;1.48;;
23732;SDS011;12047;53.450;-2.286;2023-07-24T14:49:46;3.40;;;1.40;;
23732;SDS011;12047;53.450;-2.286;2023-07-24T14:54:46;4.23;;;1.30;;
23732;SDS011;12047;53.450;-2.286;2023-07-24T14:59:47;3.28;;;1.40;;
23732;SDS011;12047;53.450;-2.286;2023-07-24T15:04:47;3.42;;;1.60;;
23732;SDS011;12047;53.450;-2.286;2023-07-24T15:09:47;7.33;;;1.70;;
23732;SDS011;12047;53.450;-2.286;2023-07-24T15:14:48;4.37;;;1.27;;
23732;SDS011;12047;53.450;-2.286;2023-07-24T15:19:48;6.65;;;1.40;;
23732;SDS011;12047;53.450;-2.286;2023-07-24T15:24:49;2.92;;;1.38;;
23732;SDS011;12047;53.450;-2.286;2023-07-24T15:29:49;1.52;;;1.38;;
23732;SDS011;12047;53.450;-2.286;2023-07-24T15:34:50;3.92;;;1.40;;
23732;SDS011;12047;53.450;-2.286;2023-07-24T15:39:50;16.40;;;2.70;;
23732;SDS011;12047;53.450;-2.286;2023-07-24T15:44:51;28.85;;;3.40;;
23732;SDS011;12047;53.450;-2.286;2023-07-24T15:49:51;6.35;;;1.73;;
23732;SDS011;12047;53.450;-2.286;2023-07-24T15:54:52;4.90;;;1.67;;
23732;SDS011;12047;53.450;-2.286;2023-07-24T15:59:55;3.60;;;1.50;;
23732;SDS011;12047;53.450;-2.286;2023-07-24T16:04:55;4.15;;;1.90;;
23732;SDS011;12047;53.450;-2.286;2023-07-24T16:09:56;3.08;;;1.42;;
23732;SDS011;12047;53.450;-2.286;2023-07-24T16:14:56;4.65;;;1.50;;
23732;SDS011;12047;53.450;-2.286;2023-07-24T16:19:57;3.33;;;1.50;;
23732;SDS011;12047;53.450;-2.286;2023-07-24T16:24:57;3.33;;;1.38;;
23732;SDS011;12047;53.450;-2.286;2023-07-24T16:29:58;3.87;;;1.90;;
23732;SDS011;12047;53.450;-2.286;2023-07-24T16:34:58;2.78;;;1.30;;
23732;SDS011;12047;53.450;-2.286;2023-07-24T16:39:59;3.22;;;1.17;;
23732;SDS011;12047;53.450;-2.286;2023-07-24T16:45:00;4.57;;;1.30;;
23732;SDS011;12047;53.450;-2.286;2023-07-24T16:50:00;2.70;;;1.10;;
23732;SDS011;12047;53.450;-2.286;2023-07-24T16:55:01;6.28;;;1.33;;
23732;SDS011;12047;53.450;-2.286;2023-07-24T17:00:02;2.25;;;1.20;;
23732;SDS011;12047;53.450;-2.286;2023-07-24T17:05:06;2.80;;;1.27;;
23732;SDS011;12047;53.450;-2.286;2023-07-24T17:10:07;5.25;;;1.20;;
23732;SDS011;12047;53.450;-2.286;2023-07-24T17:15:09;3.60;;;1.30;;
23732;SDS011;12047;53.450;-2.286;2023-07-24T17:20:10;4.28;;;1.20;;
23732;SDS011;12047;53.450;-2.286;2023-07-24T17:25:10;2.75;;;1.30;;
23732;SDS011;12047;53.450;-2.286;2023-07-24T17:30:12;7.80;;;4.75;;
23732;SDS011;12047;53.450;-2.286;2023-07-24T17:35:16;8.40;;;4.30;;
23732;SDS011;12047;53.450;-2.286;2023-07-24T17:40:19;12.13;;;6.15;;
23732;SDS011;12047;53.450;-2.286;2023-07-24T17:45:20;2.38;;;1.58;;
23732;SDS011;12047;53.450;-2.286;2023-07-24T17:50:20;3.13;;;1.17;;
23732;SDS011;12047;53.450;-2.286;2023-07-24T17:55:23;2.53;;;1.10;;
23732;SDS011;12047;53.450;-2.286;2023-07-24T18:00:29;3.13;;;1.13;;
23732;SDS011;12047;53.450;-2.286;2023-07-24T18:05:34;3.00;;;1.15;;
23732;SDS011;12047;53.450;-2.286;2023-07-24T18:10:38;3.65;;;1.08;;
23732;SDS011;12047;53.450;-2.286;2023-07-24T18:15:39;1.60;;;1.17;;
23732;SDS011;12047;53.450;-2.286;2023-07-24T18:20:39;2.45;;;1.10;;
23732;SDS011;12047;53.450;-2.286;2023-07-24T18:25:40;2.03;;;1.00;;
23732;SDS011;12047;53.450;-2.286;2023-07-24T18:30:40;4.60;;;1.25;;
23732;SDS011;12047;53.450;-2.286;2023-07-24T18:35:45;3.15;;;1.10;;
23732;SDS011;12047;53.450;-2.286;2023-07-24T18:40:49;2.58;;;1.30;;
23732;SDS011;12047;53.450;-2.286;2023-07-24T18:45:49;4.10;;;1.23;;
23732;SDS011;12047;53.450;-2.286;2023-07-24T18:50:52;1.98;;;1.00;;
23732;SDS011;12047;53.450;-2.286;2023-07-24T18:55:53;2.47;;;1.02;;
23732;SDS011;12047;53.450;-2.286;2023-07-24T19:00:56;2.78;;;1.02;;
23732;SDS011;12047;53.450;-2.286;2023-07-24T19:06:00;3.22;;;1.40;;
23732;SDS011;12047;53.450;-2.286;2023-07-24T19:11:04;3.47;;;1.17;;
23732;SDS011;12047;53.450;-2.286;2023-07-24T19:16:05;2.35;;;1.40;;
23732;SDS011;12047;53.450;-2.286;2023-07-24T19:21:05;3.60;;;1.63;;
23732;SDS011;12047;53.450;-2.286;2023-07-24T19:26:06;2.67;;;1.27;;
23732;SDS011;12047;53.450;-2.286;2023-07-24T19:31:08;3.95;;;1.77;;
23732;SDS011;12047;53.450;-2.286;2023-07-24T19:36:09;3.13;;;1.15;;
23732;SDS011;12047;53.450;-2.286;2023-07-24T19:41:09;1.52;;;1.10;;
23732;SDS011;12047;53.450;-2.286;2023-07-24T19:46:10;3.00;;;1.23;;
23732;SDS011;12047;53.450;-2.286;2023-07-24T19:51:10;5.20;;;1.20;;
23732;SDS011;12047;53.450;-2.286;2023-07-24T19:56:11;2.17;;;1.17;;
23732;SDS011;12047;53.450;-2.286;2023-07-24T20:01:11;2.55;;;1.30;;
23732;SDS011;12047;53.450;-2.286;2023-07-24T20:06:12;2.58;;;1.20;;
23732;SDS011;12047;53.450;-2.286;2023-07-24T20:11:12;2.13;;;0.90;;
23732;SDS011;12047;53.450;-2.286;2023-07-24T20:16:13;3.63;;;1.55;;
23732;SDS011;12047;53.450;-2.286;2023-07-24T20:21:19;5.93;;;1.45;;
23732;SDS011;12047;53.450;-2.286;2023-07-24T20:26:20;2.95;;;1.35;;
23732;SDS011;12047;53.450;-2.286;2023-07-24T20:31:21;3.28;;;1.20;;
23732;SDS011;12047;53.450;-2.286;2023-07-24T20:36:21;3.42;;;1.35;;
23732;SDS011;12047;53.450;-2.286;2023-07-24T20:41:22;2.53;;;1.23;;
23732;SDS011;12047;53.450;-2.286;2023-07-24T20:46:22;3.10;;;1.00;;
23732;SDS011;12047;53.450;-2.286;2023-07-24T20:51:23;2.20;;;1.23;;
23732;SDS011;12047;53.450;-2.286;2023-07-24T20:56:24;3.45;;;1.40;;
23732;SDS011;12047;53.450;-2.286;2023-07-24T21:01:24;4.40;;;1.77;;
23732;SDS011;12047;53.450;-2.286;2023-07-24T21:06:27;3.00;;;1.70;;
23732;SDS011;12047;53.450;-2.286;2023-07-24T21:11:28;9.82;;;5.20;;
23732;SDS011;12047;53.450;-2.286;2023-07-24T21:16:28;9.60;;;5.82;;
23732;SDS011;12047;53.450;-2.286;2023-07-24T21:21:29;10.23;;;5.05;;
23732;SDS011;12047;53.450;-2.286;2023-07-24T21:26:30;8.07;;;4.47;;
23732;SDS011;12047;53.450;-2.286;2023-07-24T21:31:30;11.02;;;3.88;;
23732;SDS011;12047;53.450;-2.286;2023-07-24T21:36:31;11.70;;;4.57;;
23732;SDS011;12047;53.450;-2.286;2023-07-24T21:41:31;11.63;;;4.30;;
23732;SDS011;12047;53.450;-2.286;2023-07-24T21:46:32;10.95;;;4.57;;
23732;SDS011;12047;53.450;-2.286;2023-07-24T21:51:32;9.07;;;3.20;;
23732;SDS011;12047;53.450;-2.286;2023-07-24T21:56:32;5.45;;;2.60;;
23732;SDS011;12047;53.450;-2.286;2023-07-24T22:01:33;3.97;;;1.83;;
23732;SDS011;12047;53.450;-2.286;2023-07-24T22:06:34;3.55;;;2.10;;
23732;SDS011;12047;53.450;-2.286;2023-07-24T22:11:35;3.53;;;2.00;;
23732;SDS011;12047;53.450;-2.286;2023-07-24T22:16:35;3.83;;;2.13;;
23732;SDS011;12047;53.450;-2.286;2023-07-24T22:21:36;4.88;;;2.15;;
23732;SDS011;12047;53.450;-2.286;2023-07-24T22:26:36;5.03;;;2.13;;
23732;SDS011;12047;53.450;-2.286;2023-07-24T22:31:37;2.83;;;2.00;;
23732;SDS011;12047;53.450;-2.286;2023-07-24T22:36:37;3.55;;;1.83;;
23732;SDS011;12047;53.450;-2.286;2023-07-24T22:41:39;5.47;;;2.08;;
23732;SDS011;12047;53.450;-2.286;2023-07-24T22:46:41;5.32;;;2.22;;
23732;SDS011;12047;53.450;-2.286;2023-07-24T22:51:41;4.15;;;2.10;;
23732;SDS011;12047;53.450;-2.286;2023-07-24T22:56:42;5.22;;;2.70;;
23732;SDS011;12047;53.450;-2.286;2023-07-24T23:01:43;3.70;;;2.72;;
23732;SDS011;12047;53.450;-2.286;2023-07-24T23:06:44;4.53;;;2.90;;
23732;SDS011;12047;53.450;-2.286;2023-07-24T23:11:45;5.45;;;2.75;;
23732;SDS011;12047;53.450;-2.286;2023-07-24T23:16:45;5.80;;;2.90;;
23732;SDS011;12047;53.450;-2.286;2023-07-24T23:21:46;6.20;;;3.42;;
23732;SDS011;12047;53.450;-2.286;2023-07-24T23:26:46;5.15;;;3.42;;
23732;SDS011;12047;53.450;-2.286;2023-07-24T23:31:47;13.05;;;4.22;;
23732;SDS011;12047;53.450;-2.286;2023-07-24T23:36:47;5.70;;;3.60;;
23732;SDS011;12047;53.450;-2.286;2023-07-24T23:41:50;6.07;;;3.38;;
23732;SDS011;12047;53.450;-2.286;2023-07-24T23:46:51;5.55;;;3.90;;
23732;SDS011;12047;53.450;-2.286;2023-07-24T23:51:52;5.90;;;3.53;;
23732;SDS011;12047;53.450;-2.286;2023-07-24T23:56:52;6.50;;;3.40;;
